Time;durP1;ratioP1;P1;durP2;ratioP2;P2;SDS_P1;SDS_P2;PMS_P1;PMS_P2;Temp;Humidity;BMP_temperature;BMP_pressure;BME280_temperature;BME280_humidity;BME280_pressure;Samples;Min_cycle;Max_cycle;Signal;HPM_P1;HPM_P2
2021/01/26 00:00:09;;;;;;;26.53;18.53;;;4.20;78.00;;;;;;4901157;28;96225;-74
2021/01/26 00:02:35;;;;;;;28.50;19.17;;;4.20;78.20;;;;;;4884411;28;96619;-74
2021/01/26 00:05:01;;;;;;;30.13;20.90;;;4.20;78.20;;;;;;4901689;28;91873;-74
2021/01/26 00:07:28;;;;;;;31.00;19.87;;;4.20;78.30;;;;;;4919320;28;91591;-74
2021/01/26 00:09:53;;;;;;;28.33;19.40;;;4.20;78.10;;;;;;4884926;28;96592;-74
2021/01/26 00:12:19;;;;;;;30.40;20.30;;;4.20;78.20;;;;;;4885144;28;96300;-74
2021/01/26 00:14:45;;;;;;;29.57;19.63;;;4.20;77.90;;;;;;4899977;28;93430;-74
2021/01/26 00:17:11;;;;;;;33.30;22.37;;;4.10;78.10;;;;;;4901573;28;92527;-74
2021/01/26 00:19:37;;;;;;;29.40;19.27;;;4.20;78.20;;;;;;4899309;28;96099;-74
2021/01/26 00:22:03;;;;;;;32.77;20.47;;;4.20;78.00;;;;;;4901139;28;92924;-74
2021/01/26 00:24:28;;;;;;;30.87;19.57;;;4.20;77.90;;;;;;4918777;28;91965;-74
2021/01/26 00:26:54;;;;;;;29.60;20.47;;;4.30;77.90;;;;;;4884914;28;92162;-74
2021/01/26 00:29:20;;;;;;;28.03;19.00;;;4.20;77.90;;;;;;4900923;28;96578;-74
2021/01/26 00:31:46;;;;;;;29.30;19.83;;;4.20;78.00;;;;;;4884510;28;95988;-74
2021/01/26 00:34:12;;;;;;;30.87;20.00;;;4.20;77.80;;;;;;4885271;28;91944;-74
2021/01/26 00:36:37;;;;;;;28.60;18.73;;;4.10;77.80;;;;;;4884504;28;92027;-74
2021/01/26 00:39:05;;;;;;;28.87;18.23;;;4.10;78.10;;;;;;4887788;28;97359;-74
2021/01/26 00:41:31;;;;;;;25.37;18.57;;;4.10;78.30;;;;;;4921209;28;93943;-74
2021/01/26 00:43:57;;;;;;;27.53;18.37;;;4.20;78.40;;;;;;4904175;28;92095;-74
2021/01/26 00:46:23;;;;;;;27.37;18.60;;;4.10;78.30;;;;;;4904700;28;92054;-74
2021/01/26 00:48:49;;;;;;;29.60;17.80;;;4.20;78.50;;;;;;4887063;28;96476;-74
2021/01/26 00:51:15;;;;;;;24.83;17.03;;;4.10;78.80;;;;;;4904100;28;96207;-74
2021/01/26 00:53:41;;;;;;;25.80;17.23;;;4.10;78.70;;;;;;4887241;28;92245;-74
2021/01/26 00:56:11;;;;;;;21.43;15.33;;;4.10;78.30;;;;;;4888905;28;91637;-74
2021/01/26 00:58:39;;;;;;;23.17;16.43;;;4.10;78.30;;;;;;4903073;28;96420;-74
2021/01/26 01:01:09;;;;;;;24.80;16.43;;;4.00;78.20;;;;;;4903497;28;96309;-74
2021/01/26 01:03:37;;;;;;;23.50;15.33;;;4.10;78.40;;;;;;4902701;28;92832;-74
2021/01/26 01:06:03;;;;;;;24.03;15.87;;;4.10;78.40;;;;;;4904039;28;92004;-74
2021/01/26 01:08:29;;;;;;;25.43;16.90;;;4.10;78.20;;;;;;4886935;28;96401;-74
2021/01/26 01:10:55;;;;;;;24.63;16.20;;;4.10;78.20;;;;;;4903188;28;93525;-74
2021/01/26 01:13:22;;;;;;;26.53;16.67;;;4.10;78.20;;;;;;4921083;28;91902;-74
2021/01/26 01:15:48;;;;;;;22.73;15.80;;;4.00;78.50;;;;;;4887112;28;92354;-74
2021/01/26 01:18:14;;;;;;;30.17;16.30;;;3.90;79.00;;;;;;4903810;28;92717;-74
2021/01/26 01:20:40;;;;;;;25.60;16.07;;;3.90;79.20;;;;;;4920345;28;92406;-74
2021/01/26 01:23:06;;;;;;;21.90;16.40;;;3.90;78.90;;;;;;4921211;28;91899;-74
2021/01/26 01:25:31;;;;;;;22.30;14.97;;;4.00;78.80;;;;;;4903838;28;92242;-74
2021/01/26 01:27:57;;;;;;;29.20;17.17;;;4.10;78.70;;;;;;4901930;28;97364;-74
2021/01/26 01:30:26;;;;;;;22.90;15.97;;;4.10;78.40;;;;;;4903316;28;97713;-74
2021/01/26 01:32:52;;;;;;;23.37;14.60;;;4.10;78.40;;;;;;4919742;28;92247;-74
2021/01/26 01:35:19;;;;;;;22.27;14.87;;;4.10;78.40;;;;;;4921118;28;92470;-74
2021/01/26 01:37:45;;;;;;;23.40;16.57;;;4.20;78.10;;;;;;4902306;28;96681;-74
2021/01/26 01:40:18;;;;;;;24.90;16.60;;;4.10;78.30;;;;;;4920615;28;93473;-74
2021/01/26 01:42:47;;;;;;;21.57;16.20;;;4.00;78.50;;;;;;4902819;28;91926;-74
2021/01/26 01:45:15;;;;;;;21.20;15.57;;;4.00;78.50;;;;;;4903847;28;91351;-74
2021/01/26 01:48:08;;;;;;;22.80;16.10;;;4.00;78.60;;;;;;4886270;28;96479;-74
2021/01/26 01:50:39;;;;;;;25.40;17.03;;;4.00;79.00;;;;;;4891617;28;95353;-74
2021/01/26 01:53:20;;;;;;;21.70;15.77;;;3.90;79.10;;;;;;4886658;28;92816;-74
2021/01/26 01:55:56;;;;;;;24.52;17.05;;;4.00;79.10;;;;;;4920091;28;91916;-74
2021/01/26 01:58:33;;;;;;;25.27;17.13;;;4.00;78.90;;;;;;4903207;28;93229;-74
2021/01/26 02:01:05;;;;;;;21.97;16.47;;;3.90;79.00;;;;;;4922115;28;92980;-74
2021/01/26 02:03:35;;;;;;;21.23;15.97;;;3.90;79.00;;;;;;4907691;28;92507;-76
2021/01/26 02:06:01;;;;;;;22.50;16.23;;;4.00;79.50;;;;;;4921856;28;92918;-74
2021/01/26 02:08:53;;;;;;;23.50;16.37;;;4.00;78.70;;;;;;4902655;28;96311;-74
2021/01/26 02:11:20;;;;;;;21.93;15.07;;;4.00;78.50;;;;;;4903244;28;93001;-74
2021/01/26 02:13:47;;;;;;;22.47;16.37;;;4.10;78.70;;;;;;4919580;28;92107;-74
2021/01/26 02:16:39;;;;;;;22.17;15.57;;;3.90;78.80;;;;;;4902648;28;92232;-74
2021/01/26 02:19:17;;;;;;;20.80;15.38;;;4.00;79.20;;;;;;4900982;28;97458;-74
2021/01/26 02:22:10;;;;;;;24.07;15.37;;;3.90;79.30;;;;;;4919352;28;93897;-74
2021/01/26 02:24:55;;;;;;;25.23;17.53;;;3.90;79.50;;;;;;4886962;28;92460;-74
2021/01/26 02:27:39;;;;;;;26.93;16.77;;;3.90;80.30;;;;;;4902591;28;92456;-74
2021/01/26 02:30:50;;;;;;;25.70;16.47;;;3.90;79.80;;;;;;4919376;28;94281;-74
2021/01/26 02:33:48;;;;;;;24.73;16.63;;;3.80;79.80;;;;;;4822788;29;92672;-74
2021/01/26 02:36:26;;;;;;;24.73;18.00;;;3.80;80.00;;;;;;4920166;28;91810;-74
2021/01/26 02:39:01;;;;;;;27.90;18.80;;;3.80;80.10;;;;;;4886477;28;91273;-74
2021/01/26 02:41:38;;;;;;;29.13;17.73;;;3.70;80.10;;;;;;4886289;28;94665;-74
2021/01/26 02:44:33;;;;;;;23.80;16.73;;;3.70;80.30;;;;;;4901332;28;96662;-74
2021/01/26 02:47:22;;;;;;;29.47;20.20;;;3.60;80.50;;;;;;4901745;28;93789;-73
2021/01/26 02:50:03;;;;;;;23.90;17.73;;;3.60;80.70;;;;;;4918736;28;92581;-74
2021/01/26 02:52:33;;;;;;;23.43;16.93;;;3.50;80.50;;;;;;4886427;28;96665;-74
2021/01/26 02:55:29;;;;;;;25.07;18.57;;;3.50;80.50;;;;;;4918788;28;92888;-74
2021/01/26 02:58:01;;;;;;;24.87;17.67;;;3.50;80.60;;;;;;4902170;28;92436;-74
2021/01/26 03:00:31;;;;;;;24.80;18.90;;;3.60;80.30;;;;;;4901722;28;92006;-74
2021/01/26 03:03:06;;;;;;;28.17;17.70;;;3.60;80.50;;;;;;4918419;28;93425;-74
2021/01/26 03:05:39;;;;;;;24.40;17.97;;;3.60;80.50;;;;;;4886281;28;96605;-74
2021/01/26 03:08:09;;;;;;;26.33;18.00;;;3.60;80.60;;;;;;4901425;28;91941;-74
2021/01/26 03:10:44;;;;;;;25.20;17.57;;;3.60;80.70;;;;;;4902058;28;92093;-74
2021/01/26 03:13:13;;;;;;;25.43;17.87;;;3.60;80.50;;;;;;4885039;28;97509;-74
2021/01/26 03:15:54;;;;;;;25.17;18.03;;;3.50;81.10;;;;;;4885895;28;97337;-74
2021/01/26 03:18:25;;;;;;;23.10;17.07;;;3.50;81.30;;;;;;4902375;28;92583;-74
2021/01/26 03:20:55;;;;;;;23.73;16.48;;;3.50;81.30;;;;;;4900837;28;92081;-74
2021/01/26 03:23:31;;;;;;;25.43;18.13;;;3.40;81.40;;;;;;4901497;28;92813;-74
2021/01/26 03:25:57;;;;;;;26.70;18.40;;;3.40;81.50;;;;;;4918331;28;93085;-74
2021/01/26 03:28:27;;;;;;;30.63;19.60;;;3.40;81.30;;;;;;4919277;28;91926;-74
2021/01/26 03:30:56;;;;;;;27.57;18.17;;;3.50;81.20;;;;;;4901474;28;91521;-74
2021/01/26 03:33:34;;;;;;;26.07;17.13;;;3.50;80.90;;;;;;4918617;28;93155;-73
2021/01/26 03:36:00;;;;;;;24.10;17.43;;;3.50;80.50;;;;;;4918166;28;93208;-74
2021/01/26 03:38:29;;;;;;;22.13;16.80;;;3.60;80.00;;;;;;4885039;28;92957;-74
2021/01/26 03:40:56;;;;;;;25.47;16.80;;;3.60;79.30;;;;;;4901188;28;92099;-71
2021/01/26 03:43:22;;;;;;;19.90;15.23;;;3.50;79.10;;;;;;4919049;28;93651;-71
2021/01/26 03:46:05;;;;;;;25.10;16.37;;;3.50;79.20;;;;;;4918415;28;93151;-72
2021/01/26 03:49:01;;;;;;;24.07;16.13;;;3.50;79.40;;;;;;4901682;28;91840;-75
2021/01/26 03:52:01;;;;;;;22.17;16.73;;;3.50;78.90;;;;;;4917976;28;92255;-72
2021/01/26 03:54:35;;;;;;;21.27;15.43;;;3.60;78.80;;;;;;4918754;28;93379;-72
2021/01/26 03:57:28;;;;;;;21.80;16.80;;;3.50;78.40;;;;;;4918354;28;92326;-72
2021/01/26 04:00:07;;;;;;;23.67;15.03;;;3.50;78.70;;;;;;4885064;28;91883;-72
2021/01/26 04:02:57;;;;;;;22.53;15.53;;;3.40;78.90;;;;;;4901785;28;92032;-72
2021/01/26 04:05:39;;;;;;;21.83;15.80;;;3.40;79.20;;;;;;4900493;28;97521;-72
2021/01/26 04:08:23;;;;;;;21.23;16.23;;;3.30;79.10;;;;;;4900264;28;97037;-72
2021/01/26 04:10:58;;;;;;;26.50;16.83;;;3.40;79.10;;;;;;4885359;28;92096;-72
2021/01/26 04:13:30;;;;;;;26.73;17.03;;;3.40;79.00;;;;;;4904209;28;92016;-74
2021/01/26 04:15:57;;;;;;;;;;;3.40;79.00;;;;;;4921783;28;92768;-74
2021/01/26 04:18:34;;;;;;;23.17;16.60;;;3.50;78.60;;;;;;4890236;28;95256;-74
2021/01/26 04:21:01;;;;;;;23.43;16.67;;;3.50;78.50;;;;;;4869215;28;92195;-74
2021/01/26 04:23:28;;;;;;;24.97;17.67;;;3.50;78.60;;;;;;4903416;28;91274;-74
2021/01/26 04:26:02;;;;;;;25.77;18.00;;;3.40;78.80;;;;;;4900185;28;93163;-74
2021/01/26 04:28:36;;;;;;;24.20;16.67;;;3.30;79.30;;;;;;4901762;28;94407;-74
2021/01/26 04:31:04;;;;;;;29.97;17.30;;;3.30;79.60;;;;;;4884097;28;93194;-74
2021/01/26 04:33:29;;;;;;;27.80;18.73;;;3.20;80.10;;;;;;4901385;28;92217;-75
2021/01/26 04:35:55;;;;;;;24.63;17.70;;;3.10;80.70;;;;;;4884054;28;96815;-74
2021/01/26 04:38:21;;;;;;;27.93;18.07;;;3.10;80.70;;;;;;4901158;28;93119;-74
2021/01/26 04:40:47;;;;;;;25.77;17.80;;;3.20;80.60;;;;;;4884864;28;92497;-74
2021/01/26 04:43:30;;;;;;;26.97;18.17;;;3.30;80.00;;;;;;4885230;28;92730;-74
2021/01/26 04:46:12;;;;;;;27.73;19.37;;;3.30;79.80;;;;;;4884484;28;96629;-72
2021/01/26 04:48:56;;;;;;;;;;;3.30;79.90;;;;;;4902911;28;93404;-72
2021/01/26 04:51:25;;;;;;;24.60;16.43;;;3.30;79.90;;;;;;4886780;28;91884;-72
2021/01/26 04:54:17;;;;;;;26.33;19.47;;;3.30;79.90;;;;;;4868440;28;92744;-72
2021/01/26 04:57:10;;;;;;;28.05;20.40;;;3.30;80.00;;;;;;4901503;28;94369;-72
2021/01/26 04:59:36;;;;;;;26.93;18.40;;;3.30;80.30;;;;;;4893814;28;93697;-72
2021/01/26 05:02:17;;;;;;;29.27;19.50;;;3.30;80.10;;;;;;4868227;28;92186;-72
2021/01/26 05:05:14;;;;;;;29.90;20.83;;;3.30;80.30;;;;;;4869016;28;92011;-72
2021/01/26 05:07:48;;;;;;;26.40;18.93;;;3.30;80.20;;;;;;4868837;28;96037;-72
2021/01/26 05:10:38;;;;;;;28.03;18.90;;;3.30;80.30;;;;;;4884030;28;93101;-72
2021/01/26 05:13:11;;;;;;;26.53;18.87;;;3.30;80.50;;;;;;4900155;28;91952;-72
2021/01/26 05:15:40;;;;;;;25.67;18.50;;;3.30;80.70;;;;;;4902466;28;91139;-72
2021/01/26 05:18:24;;;;;;;26.43;19.57;;;3.30;81.00;;;;;;4883719;28;94476;-72
2021/01/26 05:21:01;;;;;;;29.03;19.87;;;3.30;80.80;;;;;;4919220;28;93019;-72
2021/01/26 05:23:36;;;;;;;26.53;19.37;;;3.30;80.90;;;;;;4920818;28;92905;-75
2021/01/26 05:26:02;;;;;;;25.63;18.87;;;3.40;80.70;;;;;;4920647;28;92012;-74
2021/01/26 05:28:28;;;;;;;30.47;20.00;;;3.40;80.80;;;;;;4903623;28;93663;-74
2021/01/26 05:30:56;;;;;;;28.07;19.53;;;3.40;80.70;;;;;;4903312;28;95957;-75
2021/01/26 05:33:22;;;;;;;23.67;17.97;;;3.40;80.80;;;;;;4904705;28;91904;-75
2021/01/26 05:35:55;;;;;;;26.67;18.83;;;3.40;80.70;;;;;;4906922;28;92368;-73
2021/01/26 05:38:22;;;;;;;25.57;17.90;;;3.40;80.80;;;;;;4922704;28;93762;-72
2021/01/26 05:40:58;;;;;;;29.63;20.63;;;3.40;81.20;;;;;;4887653;28;95314;-72
2021/01/26 05:43:30;;;;;;;28.23;19.10;;;3.40;81.20;;;;;;4920607;28;92412;-72
2021/01/26 05:45:59;;;;;;;30.00;18.65;;;3.40;81.20;;;;;;4920681;28;92178;-72
2021/01/26 05:48:26;;;;;;;28.33;19.77;;;3.50;81.20;;;;;;4886356;28;97931;-72
2021/01/26 05:51:28;;;;;;;25.40;18.53;;;3.50;81.00;;;;;;4903061;28;94059;-72
2021/01/26 05:53:56;;;;;;;;;;;3.50;81.00;;;;;;4899082;28;92262;-72
2021/01/26 05:56:23;;;;;;;34.33;20.20;;;3.50;81.30;;;;;;4922165;28;92062;-72
2021/01/26 05:58:49;;;;;;;30.60;21.23;;;3.50;81.10;;;;;;4920225;28;93199;-72
2021/01/26 06:01:27;;;;;;;28.87;20.10;;;3.50;81.10;;;;;;4870258;28;96138;-72
2021/01/26 06:04:13;;;;;;;33.00;20.50;;;3.40;81.10;;;;;;4920577;28;92292;-72
2021/01/26 06:06:56;;;;;;;27.60;19.93;;;3.40;81.00;;;;;;4903872;28;91660;-72
2021/01/26 06:09:40;;;;;;;25.00;18.90;;;3.40;80.60;;;;;;4885648;28;95588;-72
2021/01/26 06:12:17;;;;;;;29.77;20.33;;;3.40;80.50;;;;;;4886496;28;96260;-72
2021/01/26 06:14:47;;;;;;;30.67;20.03;;;3.50;80.20;;;;;;4886324;28;92996;-72
2021/01/26 06:17:19;;;;;;;27.87;20.10;;;3.50;79.90;;;;;;4902039;28;92157;-72
2021/01/26 06:19:45;;;;;;;30.57;21.73;;;3.50;80.00;;;;;;4902293;28;96989;-72
2021/01/26 06:22:23;;;;;;;32.03;21.70;;;3.50;79.60;;;;;;4885730;28;96130;-72
2021/01/26 06:24:51;;;;;;;26.80;18.73;;;3.50;79.70;;;;;;4920375;28;91982;-71
2021/01/26 06:27:49;;;;;;;29.07;19.57;;;3.40;79.90;;;;;;4901962;28;92781;-72
2021/01/26 06:30:46;;;;;;;27.93;20.67;;;3.40;80.10;;;;;;4821015;28;93313;-72
2021/01/26 06:33:24;;;;;;;32.00;20.87;;;3.40;80.30;;;;;;4886743;28;96058;-72
2021/01/26 06:36:31;;;;;;;28.73;21.37;;;3.40;80.20;;;;;;4886365;28;92022;-72
2021/01/26 06:39:30;;;;;;;27.53;20.17;;;3.30;80.30;;;;;;4898314;28;91858;-72
2021/01/26 06:42:22;;;;;;;28.80;20.03;;;3.30;80.40;;;;;;4902927;28;94406;-72
2021/01/26 06:45:16;;;;;;;31.13;21.43;;;3.40;80.10;;;;;;4883247;28;94582;-72
2021/01/26 06:48:20;;;;;;;27.60;19.27;;;3.40;80.00;;;;;;4867422;28;91965;-72
2021/01/26 06:51:15;;;;;;;29.33;20.03;;;3.40;79.90;;;;;;4873681;28;92211;-74
2021/01/26 06:54:16;;;;;;;27.93;20.17;;;3.40;80.10;;;;;;4900269;28;93203;-72
2021/01/26 06:57:01;;;;;;;26.27;18.53;;;3.40;80.10;;;;;;4883082;28;93561;-72
2021/01/26 06:59:45;;;;;;;29.63;19.97;;;3.40;80.10;;;;;;4877046;28;92133;-72
2021/01/26 07:02:23;;;;;;;27.43;18.53;;;3.40;80.30;;;;;;4906639;28;91261;-72
2021/01/26 07:05:26;;;;;;;26.47;18.87;;;3.40;80.50;;;;;;4908066;28;93973;-72
2021/01/26 07:08:05;;;;;;;25.07;19.33;;;3.40;81.20;;;;;;4886564;28;96158;-72
2021/01/26 07:11:05;;;;;;;29.70;19.70;;;3.30;82.50;;;;;;4900257;28;93193;-72
2021/01/26 07:13:35;;;;;;;29.87;20.17;;;3.30;83.40;;;;;;4892097;28;92063;-72
2021/01/26 07:16:01;;;;;;;30.03;20.33;;;3.30;83.90;;;;;;4883476;28;96553;-72
2021/01/26 07:18:54;;;;;;;27.37;19.77;;;3.20;84.40;;;;;;4898322;28;96354;-72
2021/01/26 07:21:44;;;;;;;28.10;18.00;;;3.20;84.60;;;;;;4909473;28;92150;-72
2021/01/26 07:24:24;;;;;;;26.10;18.17;;;3.30;85.10;;;;;;4880889;28;92136;-72
2021/01/26 07:27:15;;;;;;;28.33;19.00;;;3.30;85.30;;;;;;4883094;28;92650;-72
2021/01/26 07:30:01;;;;;;;28.20;20.13;;;3.40;84.90;;;;;;4883139;28;97231;-72
2021/01/26 07:32:32;;;;;;;27.70;19.90;;;3.30;84.90;;;;;;4882717;28;91986;-73
2021/01/26 07:35:17;;;;;;;28.73;19.42;;;3.40;84.60;;;;;;4902165;28;92062;-72
2021/01/26 07:37:53;;;;;;;27.83;20.13;;;3.30;84.80;;;;;;4881188;28;97713;-72
2021/01/26 07:40:31;;;;;;;26.60;18.67;;;3.30;84.90;;;;;;4892134;28;97264;-72
2021/01/26 07:43:09;;;;;;;27.50;18.83;;;3.40;84.80;;;;;;4889862;28;92144;-72
2021/01/26 07:45:53;;;;;;;24.83;17.93;;;3.40;84.40;;;;;;4896380;28;92047;-72
2021/01/26 07:48:34;;;;;;;22.83;18.03;;;3.40;83.80;;;;;;4885101;28;93311;-72
2021/01/26 07:51:06;;;;;;;30.00;18.93;;;3.40;83.70;;;;;;4885940;28;96449;-72
2021/01/26 07:53:35;;;;;;;26.27;17.87;;;3.40;83.60;;;;;;4903332;28;91746;-72
2021/01/26 07:56:24;;;;;;;26.90;19.17;;;3.40;83.60;;;;;;4886221;28;91644;-72
2021/01/26 07:58:51;;;;;;;27.07;18.83;;;3.50;83.50;;;;;;4885598;28;96549;-72
2021/01/26 08:01:19;;;;;;;23.33;17.43;;;3.60;82.80;;;;;;4884487;28;92371;-71
2021/01/26 08:03:46;;;;;;;25.40;19.07;;;3.50;82.40;;;;;;4905429;28;93226;-69
2021/01/26 08:06:36;;;;;;;34.13;24.87;;;3.50;82.50;;;;;;4902919;28;92191;-69
2021/01/26 08:09:17;;;;;;;39.63;28.97;;;3.50;82.90;;;;;;4887879;28;96229;-69
2021/01/26 08:12:03;;;;;;;30.83;23.13;;;3.60;82.00;;;;;;4921666;28;92145;-69
2021/01/26 08:14:39;;;;;;;22.87;16.73;;;3.60;82.30;;;;;;4903116;28;91995;-70
2021/01/26 08:17:11;;;;;;;21.10;16.43;;;3.70;81.70;;;;;;4921656;28;92420;-68
2021/01/26 08:19:46;;;;;;;21.42;16.80;;;3.70;81.70;;;;;;4903315;28;96455;-69
2021/01/26 08:22:31;;;;;;;22.83;17.47;;;3.70;81.50;;;;;;4903615;28;93615;-70
2021/01/26 08:25:06;;;;;;;21.43;16.13;;;3.70;81.20;;;;;;4922060;28;92098;-69
2021/01/26 08:27:37;;;;;;;23.47;16.83;;;3.80;81.00;;;;;;4888126;28;92302;-69
2021/01/26 08:30:20;;;;;;;21.58;15.82;;;3.90;80.30;;;;;;4887317;28;97336;-69
2021/01/26 08:32:47;;;;;;;19.30;15.73;;;3.90;80.00;;;;;;4921579;28;93300;-69
2021/01/26 08:35:36;;;;;;;19.93;14.97;;;3.80;79.90;;;;;;4901381;28;91936;-69
2021/01/26 08:38:03;;;;;;;24.87;16.67;;;3.90;80.20;;;;;;4900798;28;92031;-69
2021/01/26 08:40:29;;;;;;;23.43;16.63;;;3.90;79.60;;;;;;4883275;28;96573;-70
2021/01/26 08:43:04;;;;;;;21.37;16.40;;;3.90;79.00;;;;;;4884372;28;96422;-70
2021/01/26 08:45:30;;;;;;;20.33;16.60;;;3.90;78.60;;;;;;4868226;28;92149;-70
2021/01/26 08:48:30;;;;;;;26.20;15.83;;;3.80;78.80;;;;;;4902606;28;91443;-70
2021/01/26 08:50:56;;;;;;;22.33;14.90;;;3.80;78.40;;;;;;4852720;28;92831;-69
2021/01/26 08:53:26;;;;;;;20.30;15.40;;;3.80;78.20;;;;;;4882470;28;95969;-70
2021/01/26 08:55:57;;;;;;;22.17;16.50;;;3.90;77.80;;;;;;4877023;28;92986;-70
2021/01/26 08:58:43;;;;;;;25.03;15.97;;;3.90;77.20;;;;;;4920513;28;92011;-70
2021/01/26 09:01:34;;;;;;;24.07;15.13;;;3.90;76.60;;;;;;4917306;28;93374;-70
2021/01/26 09:04:12;;;;;;;22.70;14.53;;;4.00;76.40;;;;;;4883639;28;95529;-70
2021/01/26 09:06:38;;;;;;;19.47;14.17;;;4.00;75.50;;;;;;4902076;28;92466;-69
2021/01/26 09:09:09;;;;;;;19.73;14.37;;;4.00;74.30;;;;;;4886572;28;92086;-71
2021/01/26 09:11:44;;;;;;;20.73;13.43;;;3.90;74.70;;;;;;4872011;28;96611;-70
2021/01/26 09:14:44;;;;;;;22.17;13.60;;;3.90;74.20;;;;;;4902728;28;93436;-69
2021/01/26 09:17:35;;;;;;;18.50;12.90;;;4.00;74.50;;;;;;4901952;28;92027;-69
2021/01/26 09:20:20;;;;;;;17.42;12.65;;;3.90;74.40;;;;;;4901063;28;92085;-69
2021/01/26 09:22:47;;;;;;;19.10;12.83;;;3.90;74.60;;;;;;4884292;28;94776;-71
2021/01/26 09:25:19;;;;;;;20.10;14.50;;;3.80;74.20;;;;;;4883764;28;96863;-71
2021/01/26 09:28:18;;;;;;;19.40;12.45;;;3.70;74.00;;;;;;4902113;28;92305;-71
2021/01/26 09:30:47;;;;;;;19.43;13.50;;;3.70;74.50;;;;;;4876138;28;92252;-71
2021/01/26 09:33:13;;;;;;;24.67;14.93;;;3.70;75.00;;;;;;4893877;28;96355;-71
2021/01/26 09:35:38;;;;;;;20.47;12.67;;;3.70;75.00;;;;;;4896313;28;96140;-71
2021/01/26 09:38:27;;;;;;;19.87;14.93;;;3.60;75.20;;;;;;4901404;28;92263;-71
2021/01/26 09:41:29;;;;;;;24.27;16.80;;;3.60;77.20;;;;;;4887684;28;91390;-71
2021/01/26 09:44:06;;;;;;;24.20;13.75;;;3.50;77.10;;;;;;4896905;28;97013;-71
2021/01/26 09:46:36;;;;;;;17.87;12.77;;;3.60;77.70;;;;;;4902379;28;92229;-71
2021/01/26 09:49:18;;;;;;;22.03;13.67;;;3.70;76.10;;;;;;4919816;28;92949;-71
2021/01/26 09:51:51;;;;;;;21.55;12.95;;;3.80;74.70;;;;;;4896146;28;92156;-71
2021/01/26 09:54:25;;;;;;;26.37;14.90;;;3.90;74.60;;;;;;4900105;28;93250;-71
2021/01/26 09:56:51;;;;;;;22.17;13.67;;;4.00;73.80;;;;;;4894952;28;95876;-76
2021/01/26 09:59:19;;;;;;;24.43;13.47;;;4.10;72.50;;;;;;4912721;28;91927;-71
2021/01/26 10:01:46;;;;;;;26.00;14.30;;;4.20;72.90;;;;;;4901356;28;92124;-72
2021/01/26 10:04:14;;;;;;;22.73;13.60;;;4.20;72.50;;;;;;4893744;28;96914;-71
2021/01/26 10:06:40;;;;;;;20.67;13.43;;;4.30;71.70;;;;;;4903124;28;92995;-72
2021/01/26 10:09:24;;;;;;;17.70;12.40;;;4.30;71.40;;;;;;4867865;28;92182;-72
2021/01/26 10:11:52;;;;;;;18.90;13.57;;;4.40;70.80;;;;;;4903523;28;91991;-72
2021/01/26 10:14:19;;;;;;;17.13;13.13;;;4.50;70.60;;;;;;4889034;28;97370;-72
2021/01/26 10:16:50;;;;;;;18.87;12.53;;;4.50;70.10;;;;;;4906852;28;93741;-77
2021/01/26 10:19:33;;;;;;;17.37;11.37;;;4.60;69.00;;;;;;4901235;28;92561;-75
2021/01/26 10:22:20;;;;;;;20.27;11.73;;;4.60;68.00;;;;;;4900053;28;92011;-76
2021/01/26 10:24:46;;;;;;;16.67;11.53;;;4.50;68.00;;;;;;4895953;28;96352;-77
2021/01/26 10:27:21;;;;;;;17.50;11.50;;;4.40;68.90;;;;;;4873095;28;96109;-75
2021/01/26 10:29:48;;;;;;;17.90;11.30;;;4.50;69.50;;;;;;4879149;28;92586;-76
2021/01/26 10:32:59;;;;;;;17.33;11.70;;;4.50;68.90;;;;;;5021229;28;83896;-75
2021/01/26 10:35:32;;;;;;;18.10;11.27;;;4.50;68.60;;;;;;4973053;28;87025;-75
2021/01/26 10:38:31;;;;;;;26.67;14.30;;;4.70;69.00;;;;;;4980406;28;83987;-76
2021/01/26 10:41:18;;;;;;;34.13;16.57;;;4.70;68.10;;;;;;4980082;28;86730;-76
2021/01/26 10:43:44;;;;;;;24.83;13.67;;;4.70;67.80;;;;;;5001453;28;87142;-75
2021/01/26 10:46:26;;;;;;;19.00;12.63;;;4.70;68.20;;;;;;4995163;28;86926;-75
2021/01/26 10:48:52;;;;;;;21.07;12.70;;;4.70;68.60;;;;;;4994454;28;86754;-78
2021/01/26 10:51:28;;;;;;;16.70;11.40;;;4.80;68.20;;;;;;4986095;28;84593;-78
2021/01/26 10:53:54;;;;;;;18.03;12.23;;;4.80;67.40;;;;;;4980896;28;86911;-78
2021/01/26 10:56:21;;;;;;;19.63;13.10;;;4.80;67.70;;;;;;4979563;28;84396;-77
2021/01/26 10:58:48;;;;;;;15.37;11.47;;;4.80;67.70;;;;;;4966711;28;85723;-78
2021/01/26 11:01:20;;;;;;;22.57;12.07;;;4.70;67.50;;;;;;4977848;28;87856;-75
2021/01/26 11:03:47;;;;;;;;;;;4.70;67.40;;;;;;4996650;28;84267;-76
2021/01/26 11:06:13;;;;;;;15.37;11.30;;;4.60;67.50;;;;;;4999353;28;85305;-75
2021/01/26 11:08:40;;;;;;;18.07;12.50;;;4.70;67.90;;;;;;5001609;28;83413;-75
2021/01/26 11:11:06;;;;;;;16.50;11.87;;;4.80;67.80;;;;;;4993167;28;88013;-76
2021/01/26 11:13:32;;;;;;;19.73;12.37;;;4.80;67.70;;;;;;5008239;28;87711;-75
2021/01/26 11:15:58;;;;;;;17.57;11.30;;;4.80;67.60;;;;;;5017465;28;87260;-75
2021/01/26 11:18:24;;;;;;;15.53;11.17;;;4.80;67.60;;;;;;5000939;28;86012;-75
2021/01/26 11:20:49;;;;;;;18.13;11.60;;;4.90;67.60;;;;;;5017780;28;88050;-75
2021/01/26 11:23:15;;;;;;;16.63;10.47;;;5.00;66.60;;;;;;5000580;28;87239;-75
2021/01/26 11:25:42;;;;;;;18.00;10.93;;;4.90;67.00;;;;;;4994196;28;87467;-75
2021/01/26 11:28:08;;;;;;;16.07;10.77;;;5.00;66.60;;;;;;5019454;28;83638;-76
2021/01/26 11:30:34;;;;;;;15.43;10.17;;;5.00;66.40;;;;;;5017772;28;84598;-76
2021/01/26 11:33:01;;;;;;;14.57;10.27;;;5.00;66.20;;;;;;5012926;28;84259;-76
2021/01/26 11:35:28;;;;;;;15.37;10.40;;;5.00;66.20;;;;;;4987782;28;86912;-76
2021/01/26 11:37:55;;;;;;;16.77;10.37;;;5.00;65.80;;;;;;5002308;28;86899;-77
2021/01/26 11:40:22;;;;;;;15.70;10.80;;;5.10;65.80;;;;;;5002845;28;88110;-77
2021/01/26 11:42:47;;;;;;;15.00;9.73;;;5.10;66.00;;;;;;4991778;28;83834;-77
2021/01/26 11:45:21;;;;;;;17.07;9.83;;;5.10;66.30;;;;;;4986252;28;83273;-75
2021/01/26 11:47:47;;;;;;;14.37;8.90;;;5.20;67.60;;;;;;4982052;28;83603;-78
2021/01/26 11:50:15;;;;;;;16.87;10.43;;;5.20;65.00;;;;;;4979934;28;84327;-77
2021/01/26 11:52:42;;;;;;;16.33;10.63;;;5.30;64.30;;;;;;4979535;28;84600;-76
2021/01/26 11:55:16;;;;;;;14.87;9.03;;;5.40;64.30;;;;;;4979614;28;83454;-77
2021/01/26 11:57:44;;;;;;;16.13;9.90;;;5.50;64.50;;;;;;4981005;28;83830;-77
2021/01/26 12:00:11;;;;;;;13.13;8.57;;;5.60;64.10;;;;;;4980635;28;84691;-77
2021/01/26 12:02:40;;;;;;;17.20;10.60;;;5.60;63.30;;;;;;4980860;28;83812;-75
2021/01/26 12:05:07;;;;;;;14.90;9.47;;;5.60;63.60;;;;;;4979400;28;83442;-76
2021/01/26 12:07:33;;;;;;;14.37;8.50;;;5.70;63.20;;;;;;4979713;28;86680;-76
2021/01/26 12:09:58;;;;;;;14.63;9.33;;;5.70;62.10;;;;;;4981598;28;84480;-77
2021/01/26 12:12:24;;;;;;;15.10;8.30;;;5.70;62.30;;;;;;4979151;28;86844;-77
2021/01/26 12:14:50;;;;;;;13.40;7.77;;;5.70;61.90;;;;;;4983762;28;83689;-77
2021/01/26 12:17:16;;;;;;;11.83;7.93;;;5.70;61.70;;;;;;4981723;28;83865;-75
2021/01/26 12:19:42;;;;;;;13.63;8.30;;;5.70;61.70;;;;;;4964743;28;87784;-78
2021/01/26 12:22:08;;;;;;;11.33;7.77;;;5.70;62.00;;;;;;4983200;28;84491;-77
2021/01/26 12:24:33;;;;;;;12.93;8.50;;;5.80;62.00;;;;;;4966277;28;83730;-77
2021/01/26 12:26:59;;;;;;;13.10;8.33;;;5.80;61.90;;;;;;4982840;28;83480;-78
2021/01/26 12:29:25;;;;;;;12.97;7.93;;;5.90;61.20;;;;;;4982235;28;87922;-76
2021/01/26 12:31:51;;;;;;;12.63;8.33;;;6.00;62.30;;;;;;4982092;28;84104;-76
2021/01/26 12:34:17;;;;;;;16.37;8.77;;;6.20;62.80;;;;;;4965670;28;83439;-76
2021/01/26 12:36:43;;;;;;;11.70;7.73;;;6.30;61.90;;;;;;4982107;28;83419;-78
2021/01/26 12:39:09;;;;;;;14.43;8.60;;;6.40;62.00;;;;;;4982372;28;84455;-77
2021/01/26 12:41:34;;;;;;;14.53;9.03;;;6.50;61.80;;;;;;4981308;28;87481;-77
2021/01/26 12:44:02;;;;;;;12.27;8.67;;;6.60;61.50;;;;;;4983338;28;83415;-77
2021/01/26 12:46:28;;;;;;;17.63;9.53;;;6.70;60.90;;;;;;4979119;28;83904;-77
2021/01/26 12:48:54;;;;;;;14.23;7.90;;;6.70;61.00;;;;;;4977023;28;88420;-74
2021/01/26 12:51:21;;;;;;;10.73;6.53;;;6.70;59.00;;;;;;4982132;28;86271;-75
2021/01/26 12:53:47;;;;;;;21.23;6.60;;;6.50;58.90;;;;;;4984258;28;83487;-75
2021/01/26 12:56:13;;;;;;;11.13;6.33;;;6.50;58.60;;;;;;4984903;28;83218;-75
2021/01/26 12:58:39;;;;;;;12.97;6.77;;;6.50;58.30;;;;;;4982587;28;87948;-73
2021/01/26 13:01:04;;;;;;;18.07;10.23;;;6.30;58.10;;;;;;4983456;28;86835;-72
2021/01/26 13:03:30;;;;;;;23.53;14.67;;;6.20;58.60;;;;;;4980681;28;86421;-72
2021/01/26 13:05:57;;;;;;;20.93;7.63;;;6.30;59.10;;;;;;4965195;28;86813;-72
2021/01/26 13:08:22;;;;;;;16.63;6.50;;;6.20;58.80;;;;;;4982061;28;84593;-73
2021/01/26 13:10:48;;;;;;;15.03;5.93;;;6.10;58.50;;;;;;4982215;28;87406;-72
2021/01/26 13:13:14;;;;;;;9.30;5.57;;;6.10;58.20;;;;;;4982902;28;84805;-74